sensor_id;sensor_type;location;lat;lon;timestamp;P1;durP1;ratioP1;P2;durP2;ratioP2
42670;SDS011;28283;55.426;37.756;2022-09-09T00:03:18;4.57;;;1.73;;
42670;SDS011;28283;55.426;37.756;2022-09-09T00:08:25;4.03;;;2.22;;
42670;SDS011;28283;55.426;37.756;2022-09-09T00:13:58;8.82;;;2.05;;
42670;SDS011;28283;55.426;37.756;2022-09-09T00:19:06;4.43;;;1.90;;
42670;SDS011;28283;55.426;37.756;2022-09-09T00:24:17;3.47;;;3.00;;
42670;SDS011;28283;55.426;37.756;2022-09-09T00:34:55;6.07;;;3.13;;
42670;SDS011;28283;55.426;37.756;2022-09-09T00:40:02;6.32;;;3.53;;
42670;SDS011;28283;55.426;37.756;2022-09-09T00:56:01;9.40;;;4.22;;
42670;SDS011;28283;55.426;37.756;2022-09-09T01:01:21;7.45;;;3.85;;
42670;SDS011;28283;55.426;37.756;2022-09-09T01:06:27;7.22;;;4.35;;
42670;SDS011;28283;55.426;37.756;2022-09-09T01:16:56;6.22;;;4.05;;
42670;SDS011;28283;55.426;37.756;2022-09-09T01:22:03;8.15;;;2.90;;
42670;SDS011;28283;55.426;37.756;2022-09-09T01:27:15;7.90;;;3.03;;
42670;SDS011;28283;55.426;37.756;2022-09-09T01:37:45;9.25;;;3.47;;
42670;SDS011;28283;55.426;37.756;2022-09-09T01:42:46;7.93;;;3.87;;
42670;SDS011;28283;55.426;37.756;2022-09-09T01:47:46;28.58;;;13.48;;
42670;SDS011;28283;55.426;37.756;2022-09-09T01:52:49;28.98;;;12.27;;
42670;SDS011;28283;55.426;37.756;2022-09-09T01:58:06;25.95;;;12.85;;
42670;SDS011;28283;55.426;37.756;2022-09-09T02:08:29;7.85;;;3.55;;
42670;SDS011;28283;55.426;37.756;2022-09-09T02:13:39;11.15;;;5.70;;
42670;SDS011;28283;55.426;37.756;2022-09-09T02:24:06;7.25;;;4.93;;
42670;SDS011;28283;55.426;37.756;2022-09-09T02:29:14;11.32;;;5.82;;
42670;SDS011;28283;55.426;37.756;2022-09-09T02:34:20;12.32;;;6.65;;
42670;SDS011;28283;55.426;37.756;2022-09-09T02:39:24;10.30;;;6.25;;
42670;SDS011;28283;55.426;37.756;2022-09-09T02:44:24;14.00;;;6.23;;
42670;SDS011;28283;55.426;37.756;2022-09-09T02:49:59;11.75;;;5.90;;
42670;SDS011;28283;55.426;37.756;2022-09-09T02:55:08;10.55;;;5.50;;
42670;SDS011;28283;55.426;37.756;2022-09-09T03:00:22;10.43;;;4.97;;
42670;SDS011;28283;55.426;37.756;2022-09-09T03:05:24;5.22;;;3.63;;
42670;SDS011;28283;55.426;37.756;2022-09-09T03:10:26;8.95;;;4.38;;
42670;SDS011;28283;55.426;37.756;2022-09-09T03:15:27;7.00;;;3.50;;
42670;SDS011;28283;55.426;37.756;2022-09-09T03:20:30;6.57;;;2.40;;
42670;SDS011;28283;55.426;37.756;2022-09-09T03:25:31;3.92;;;1.98;;
42670;SDS011;28283;55.426;37.756;2022-09-09T03:30:32;6.05;;;2.53;;
42670;SDS011;28283;55.426;37.756;2022-09-09T03:35:32;3.00;;;1.60;;
42670;SDS011;28283;55.426;37.756;2022-09-09T03:40:33;3.10;;;1.35;;
42670;SDS011;28283;55.426;37.756;2022-09-09T03:45:34;11.97;;;2.20;;
42670;SDS011;28283;55.426;37.756;2022-09-09T03:50:34;4.07;;;2.40;;
42670;SDS011;28283;55.426;37.756;2022-09-09T03:55:35;6.07;;;2.07;;
42670;SDS011;28283;55.426;37.756;2022-09-09T04:00:36;2.95;;;2.13;;
42670;SDS011;28283;55.426;37.756;2022-09-09T04:05:39;10.27;;;2.10;;
42670;SDS011;28283;55.426;37.756;2022-09-09T04:10:44;2.83;;;2.53;;
42670;SDS011;28283;55.426;37.756;2022-09-09T04:15:52;6.78;;;3.38;;
42670;SDS011;28283;55.426;37.756;2022-09-09T04:20:55;8.07;;;3.55;;
42670;SDS011;28283;55.426;37.756;2022-09-09T04:25:59;6.45;;;3.72;;
42670;SDS011;28283;55.426;37.756;2022-09-09T04:31:07;6.25;;;3.05;;
42670;SDS011;28283;55.426;37.756;2022-09-09T04:36:09;3.95;;;2.85;;
42670;SDS011;28283;55.426;37.756;2022-09-09T04:41:10;5.78;;;2.70;;
42670;SDS011;28283;55.426;37.756;2022-09-09T04:51:13;4.05;;;2.40;;
42670;SDS011;28283;55.426;37.756;2022-09-09T04:56:15;7.97;;;2.72;;
42670;SDS011;28283;55.426;37.756;2022-09-09T05:01:18;6.00;;;2.60;;
42670;SDS011;28283;55.426;37.756;2022-09-09T05:06:20;4.97;;;2.67;;
42670;SDS011;28283;55.426;37.756;2022-09-09T05:11:22;3.28;;;1.40;;
42670;SDS011;28283;55.426;37.756;2022-09-09T05:16:24;7.30;;;2.67;;
42670;SDS011;28283;55.426;37.756;2022-09-09T05:21:25;4.32;;;2.50;;
42670;SDS011;28283;55.426;37.756;2022-09-09T05:31:26;12.88;;;3.30;;
42670;SDS011;28283;55.426;37.756;2022-09-09T05:36:30;5.55;;;2.00;;
42670;SDS011;28283;55.426;37.756;2022-09-09T05:41:31;4.43;;;1.30;;
42670;SDS011;28283;55.426;37.756;2022-09-09T05:46:31;2.13;;;1.10;;
42670;SDS011;28283;55.426;37.756;2022-09-09T05:51:32;5.40;;;1.10;;
42670;SDS011;28283;55.426;37.756;2022-09-09T05:56:33;3.70;;;0.60;;
42670;SDS011;28283;55.426;37.756;2022-09-09T06:01:34;3.97;;;0.85;;
42670;SDS011;28283;55.426;37.756;2022-09-09T06:06:37;2.97;;;0.88;;
42670;SDS011;28283;55.426;37.756;2022-09-09T06:11:40;3.03;;;0.73;;
42670;SDS011;28283;55.426;37.756;2022-09-09T06:21:44;1.50;;;0.95;;
42670;SDS011;28283;55.426;37.756;2022-09-09T06:26:45;3.88;;;0.63;;
42670;SDS011;28283;55.426;37.756;2022-09-09T06:31:46;5.97;;;0.80;;
42670;SDS011;28283;55.426;37.756;2022-09-09T06:47:04;1.75;;;0.70;;
42670;SDS011;28283;55.426;37.756;2022-09-09T06:52:05;1.23;;;0.40;;
42670;SDS011;28283;55.426;37.756;2022-09-09T06:57:06;4.60;;;0.40;;
42670;SDS011;28283;55.426;37.756;2022-09-09T07:02:07;7.28;;;0.85;;
42670;SDS011;28283;55.426;37.756;2022-09-09T07:07:08;0.43;;;0.30;;
42670;SDS011;28283;55.426;37.756;2022-09-09T07:12:09;2.40;;;0.40;;
42670;SDS011;28283;55.426;37.756;2022-09-09T07:17:12;0.85;;;0.30;;
42670;SDS011;28283;55.426;37.756;2022-09-09T07:22:13;1.30;;;0.40;;
42670;SDS011;28283;55.426;37.756;2022-09-09T07:32:15;2.67;;;0.63;;
42670;SDS011;28283;55.426;37.756;2022-09-09T07:37:16;4.40;;;0.68;;
42670;SDS011;28283;55.426;37.756;2022-09-09T07:42:17;3.50;;;0.68;;
42670;SDS011;28283;55.426;37.756;2022-09-09T07:47:19;4.45;;;0.40;;
42670;SDS011;28283;55.426;37.756;2022-09-09T07:52:20;3.03;;;0.30;;
42670;SDS011;28283;55.426;37.756;2022-09-09T08:02:22;0.75;;;0.50;;
42670;SDS011;28283;55.426;37.756;2022-09-09T08:07:24;0.98;;;0.57;;
42670;SDS011;28283;55.426;37.756;2022-09-09T08:12:24;0.27;;;0.27;;
42670;SDS011;28283;55.426;37.756;2022-09-09T08:17:25;1.52;;;0.38;;
42670;SDS011;28283;55.426;37.756;2022-09-09T08:22:26;0.57;;;0.50;;
42670;SDS011;28283;55.426;37.756;2022-09-09T08:27:27;1.15;;;0.40;;
42670;SDS011;28283;55.426;37.756;2022-09-09T08:32:27;1.70;;;0.40;;
42670;SDS011;28283;55.426;37.756;2022-09-09T08:37:29;2.10;;;0.65;;
42670;SDS011;28283;55.426;37.756;2022-09-09T08:53:09;1.85;;;0.50;;
42670;SDS011;28283;55.426;37.756;2022-09-09T09:14:01;0.50;;;0.40;;
42670;SDS011;28283;55.426;37.756;2022-09-09T09:19:12;1.20;;;0.52;;
42670;SDS011;28283;55.426;37.756;2022-09-09T09:24:18;1.42;;;0.43;;
42670;SDS011;28283;55.426;37.756;2022-09-09T09:29:20;1.65;;;0.55;;
42670;SDS011;28283;55.426;37.756;2022-09-09T09:34:22;0.85;;;0.32;;
42670;SDS011;28283;55.426;37.756;2022-09-09T09:44:28;1.73;;;0.47;;
42670;SDS011;28283;55.426;37.756;2022-09-09T09:49:32;2.92;;;1.60;;
42670;SDS011;28283;55.426;37.756;2022-09-09T09:54:37;2.35;;;0.70;;
42670;SDS011;28283;55.426;37.756;2022-09-09T09:59:39;7.40;;;1.20;;
42670;SDS011;28283;55.426;37.756;2022-09-09T10:04:40;1.13;;;0.50;;
42670;SDS011;28283;55.426;37.756;2022-09-09T10:36:12;2.05;;;0.55;;
42670;SDS011;28283;55.426;37.756;2022-09-09T10:41:19;1.00;;;0.38;;
42670;SDS011;28283;55.426;37.756;2022-09-09T10:56:43;2.70;;;0.70;;
42670;SDS011;28283;55.426;37.756;2022-09-09T11:01:55;1.90;;;0.70;;
42670;SDS011;28283;55.426;37.756;2022-09-09T11:07:02;2.00;;;0.38;;
42670;SDS011;28283;55.426;37.756;2022-09-09T11:12:10;1.33;;;0.50;;
42670;SDS011;28283;55.426;37.756;2022-09-09T11:17:18;0.80;;;0.45;;
42670;SDS011;28283;55.426;37.756;2022-09-09T11:22:31;3.13;;;0.80;;
42670;SDS011;28283;55.426;37.756;2022-09-09T11:38:45;2.75;;;0.38;;
42670;SDS011;28283;55.426;37.756;2022-09-09T11:43:51;5.45;;;0.50;;
42670;SDS011;28283;55.426;37.756;2022-09-09T11:49:00;2.10;;;0.52;;
42670;SDS011;28283;55.426;37.756;2022-09-09T11:54:48;0.70;;;0.40;;
42670;SDS011;28283;55.426;37.756;2022-09-09T11:59:31;3.00;;;0.70;;
42670;SDS011;28283;55.426;37.756;2022-09-09T12:04:40;5.65;;;0.60;;
42670;SDS011;28283;55.426;37.756;2022-09-09T12:15:00;1.20;;;0.63;;
42670;SDS011;28283;55.426;37.756;2022-09-09T12:25:47;1.25;;;0.50;;
42670;SDS011;28283;55.426;37.756;2022-09-09T12:31:24;2.38;;;0.60;;
42670;SDS011;28283;55.426;37.756;2022-09-09T12:36:27;1.00;;;0.40;;
42670;SDS011;28283;55.426;37.756;2022-09-09T12:41:30;3.90;;;0.52;;
42670;SDS011;28283;55.426;37.756;2022-09-09T12:46:41;0.70;;;0.50;;
42670;SDS011;28283;55.426;37.756;2022-09-09T12:51:45;1.80;;;0.77;;
42670;SDS011;28283;55.426;37.756;2022-09-09T12:56:46;1.42;;;0.47;;
42670;SDS011;28283;55.426;37.756;2022-09-09T13:01:54;1.10;;;0.40;;
42670;SDS011;28283;55.426;37.756;2022-09-09T13:07:05;3.17;;;0.65;;
42670;SDS011;28283;55.426;37.756;2022-09-09T13:12:09;1.35;;;0.35;;
42670;SDS011;28283;55.426;37.756;2022-09-09T13:17:21;0.82;;;0.30;;
42670;SDS011;28283;55.426;37.756;2022-09-09T13:22:36;0.75;;;0.43;;
42670;SDS011;28283;55.426;37.756;2022-09-09T13:27:41;0.63;;;0.40;;
42670;SDS011;28283;55.426;37.756;2022-09-09T13:33:16;0.55;;;0.40;;
42670;SDS011;28283;55.426;37.756;2022-09-09T13:38:20;3.05;;;0.82;;
42670;SDS011;28283;55.426;37.756;2022-09-09T13:43:22;3.50;;;1.02;;
42670;SDS011;28283;55.426;37.756;2022-09-09T13:48:25;3.70;;;1.15;;
42670;SDS011;28283;55.426;37.756;2022-09-09T13:53:26;2.40;;;0.73;;
42670;SDS011;28283;55.426;37.756;2022-09-09T13:58:27;1.25;;;0.60;;
42670;SDS011;28283;55.426;37.756;2022-09-09T14:03:27;4.10;;;1.10;;
42670;SDS011;28283;55.426;37.756;2022-09-09T14:08:28;3.13;;;0.90;;
42670;SDS011;28283;55.426;37.756;2022-09-09T14:13:37;2.65;;;1.13;;
42670;SDS011;28283;55.426;37.756;2022-09-09T14:18:37;2.87;;;1.10;;
42670;SDS011;28283;55.426;37.756;2022-09-09T14:23:39;5.50;;;0.93;;
42670;SDS011;28283;55.426;37.756;2022-09-09T14:33:50;0.93;;;0.70;;
42670;SDS011;28283;55.426;37.756;2022-09-09T14:38:57;3.03;;;0.82;;
42670;SDS011;28283;55.426;37.756;2022-09-09T14:44:45;2.80;;;0.60;;
42670;SDS011;28283;55.426;37.756;2022-09-09T14:49:46;2.33;;;0.60;;
42670;SDS011;28283;55.426;37.756;2022-09-09T14:54:49;2.25;;;0.50;;
42670;SDS011;28283;55.426;37.756;2022-09-09T14:59:50;3.00;;;0.60;;
42670;SDS011;28283;55.426;37.756;2022-09-09T15:04:50;7.10;;;0.80;;
42670;SDS011;28283;55.426;37.756;2022-09-09T15:09:52;4.60;;;1.15;;
42670;SDS011;28283;55.426;37.756;2022-09-09T15:14:53;4.20;;;1.00;;
42670;SDS011;28283;55.426;37.756;2022-09-09T15:19:55;2.10;;;0.80;;
42670;SDS011;28283;55.426;37.756;2022-09-09T15:24:55;3.03;;;0.70;;
42670;SDS011;28283;55.426;37.756;2022-09-09T15:29:56;2.70;;;0.60;;
42670;SDS011;28283;55.426;37.756;2022-09-09T15:34:58;2.58;;;0.55;;
42670;SDS011;28283;55.426;37.756;2022-09-09T15:39:58;7.17;;;1.60;;
42670;SDS011;28283;55.426;37.756;2022-09-09T15:45:01;5.18;;;1.10;;
42670;SDS011;28283;55.426;37.756;2022-09-09T15:50:02;4.57;;;1.58;;
42670;SDS011;28283;55.426;37.756;2022-09-09T15:55:03;12.25;;;2.58;;
42670;SDS011;28283;55.426;37.756;2022-09-09T16:00:04;10.05;;;2.95;;
42670;SDS011;28283;55.426;37.756;2022-09-09T16:05:06;15.25;;;3.03;;
42670;SDS011;28283;55.426;37.756;2022-09-09T16:10:07;6.00;;;3.28;;
42670;SDS011;28283;55.426;37.756;2022-09-09T16:15:08;7.20;;;2.40;;
42670;SDS011;28283;55.426;37.756;2022-09-09T16:20:09;8.30;;;1.40;;
42670;SDS011;28283;55.426;37.756;2022-09-09T16:25:11;7.45;;;1.80;;
42670;SDS011;28283;55.426;37.756;2022-09-09T16:30:12;26.93;;;8.73;;
42670;SDS011;28283;55.426;37.756;2022-09-09T16:35:13;33.42;;;13.80;;
42670;SDS011;28283;55.426;37.756;2022-09-09T16:40:14;27.52;;;14.02;;
42670;SDS011;28283;55.426;37.756;2022-09-09T16:50:16;7.72;;;3.53;;
42670;SDS011;28283;55.426;37.756;2022-09-09T16:55:16;6.53;;;2.87;;
42670;SDS011;28283;55.426;37.756;2022-09-09T17:00:20;9.48;;;3.50;;
42670;SDS011;28283;55.426;37.756;2022-09-09T17:05:23;12.15;;;5.35;;
42670;SDS011;28283;55.426;37.756;2022-09-09T17:10:25;7.40;;;4.35;;
42670;SDS011;28283;55.426;37.756;2022-09-09T17:15:25;6.63;;;2.97;;
42670;SDS011;28283;55.426;37.756;2022-09-09T17:20:26;5.60;;;2.50;;
42670;SDS011;28283;55.426;37.756;2022-09-09T17:25:27;14.77;;;3.23;;
42670;SDS011;28283;55.426;37.756;2022-09-09T17:30:27;7.83;;;2.17;;
42670;SDS011;28283;55.426;37.756;2022-09-09T17:35:28;6.17;;;4.27;;
42670;SDS011;28283;55.426;37.756;2022-09-09T17:40:30;17.58;;;5.53;;
42670;SDS011;28283;55.426;37.756;2022-09-09T17:45:30;17.58;;;6.43;;
42670;SDS011;28283;55.426;37.756;2022-09-09T17:50:31;13.18;;;6.78;;
42670;SDS011;28283;55.426;37.756;2022-09-09T17:55:33;22.00;;;6.72;;
42670;SDS011;28283;55.426;37.756;2022-09-09T18:00:34;11.07;;;5.32;;
42670;SDS011;28283;55.426;37.756;2022-09-09T18:05:42;17.73;;;5.80;;
42670;SDS011;28283;55.426;37.756;2022-09-09T18:10:52;13.48;;;6.78;;
42670;SDS011;28283;55.426;37.756;2022-09-09T18:16:19;14.35;;;6.47;;
42670;SDS011;28283;55.426;37.756;2022-09-09T18:21:21;12.75;;;4.82;;
42670;SDS011;28283;55.426;37.756;2022-09-09T18:26:31;22.00;;;6.75;;
42670;SDS011;28283;55.426;37.756;2022-09-09T18:31:34;14.18;;;5.13;;
42670;SDS011;28283;55.426;37.756;2022-09-09T18:36:41;6.80;;;4.85;;
42670;SDS011;28283;55.426;37.756;2022-09-09T18:41:46;17.65;;;6.32;;
42670;SDS011;28283;55.426;37.756;2022-09-09T18:46:52;13.73;;;5.78;;
42670;SDS011;28283;55.426;37.756;2022-09-09T18:51:53;14.18;;;6.20;;
42670;SDS011;28283;55.426;37.756;2022-09-09T18:56:56;15.43;;;5.25;;
42670;SDS011;28283;55.426;37.756;2022-09-09T19:01:58;14.43;;;3.58;;
42670;SDS011;28283;55.426;37.756;2022-09-09T19:07:47;11.85;;;4.30;;
42670;SDS011;28283;55.426;37.756;2022-09-09T19:13:42;16.25;;;8.23;;
42670;SDS011;28283;55.426;37.756;2022-09-09T19:19:20;15.38;;;8.02;;
42670;SDS011;28283;55.426;37.756;2022-09-09T19:25:04;29.52;;;15.00;;
42670;SDS011;28283;55.426;37.756;2022-09-09T19:30:13;21.65;;;10.18;;
42670;SDS011;28283;55.426;37.756;2022-09-09T19:41:16;31.65;;;12.05;;
42670;SDS011;28283;55.426;37.756;2022-09-09T19:47:00;11.70;;;5.43;;
42670;SDS011;28283;55.426;37.756;2022-09-09T19:52:05;10.77;;;5.50;;
42670;SDS011;28283;55.426;37.756;2022-09-09T19:57:09;13.38;;;4.35;;
42670;SDS011;28283;55.426;37.756;2022-09-09T20:02:12;10.60;;;5.37;;
42670;SDS011;28283;55.426;37.756;2022-09-09T20:07:14;15.90;;;5.63;;
42670;SDS011;28283;55.426;37.756;2022-09-09T20:12:15;16.40;;;6.60;;
42670;SDS011;28283;55.426;37.756;2022-09-09T20:17:16;15.43;;;6.15;;
42670;SDS011;28283;55.426;37.756;2022-09-09T20:22:16;14.53;;;6.03;;
42670;SDS011;28283;55.426;37.756;2022-09-09T20:27:17;16.30;;;6.20;;
42670;SDS011;28283;55.426;37.756;2022-09-09T20:32:18;15.10;;;6.50;;
42670;SDS011;28283;55.426;37.756;2022-09-09T20:37:27;19.25;;;8.43;;
42670;SDS011;28283;55.426;37.756;2022-09-09T20:42:34;19.58;;;9.38;;
42670;SDS011;28283;55.426;37.756;2022-09-09T20:47:35;30.07;;;9.50;;
42670;SDS011;28283;55.426;37.756;2022-09-09T20:52:43;19.05;;;8.98;;
42670;SDS011;28283;55.426;37.756;2022-09-09T20:57:44;33.88;;;9.75;;
42670;SDS011;28283;55.426;37.756;2022-09-09T21:02:45;18.65;;;10.85;;
42670;SDS011;28283;55.426;37.756;2022-09-09T21:07:46;18.50;;;9.50;;
42670;SDS011;28283;55.426;37.756;2022-09-09T21:12:46;24.60;;;9.75;;
42670;SDS011;28283;55.426;37.756;2022-09-09T21:22:48;23.83;;;8.20;;
42670;SDS011;28283;55.426;37.756;2022-09-09T21:27:49;17.63;;;8.07;;
42670;SDS011;28283;55.426;37.756;2022-09-09T21:32:50;13.07;;;7.03;;
42670;SDS011;28283;55.426;37.756;2022-09-09T21:37:51;15.95;;;7.88;;
42670;SDS011;28283;55.426;37.756;2022-09-09T21:42:51;17.53;;;7.53;;
42670;SDS011;28283;55.426;37.756;2022-09-09T21:47:52;16.70;;;7.57;;
42670;SDS011;28283;55.426;37.756;2022-09-09T21:52:53;12.85;;;7.22;;
42670;SDS011;28283;55.426;37.756;2022-09-09T21:57:54;12.60;;;6.65;;
42670;SDS011;28283;55.426;37.756;2022-09-09T22:02:55;16.37;;;8.40;;
42670;SDS011;28283;55.426;37.756;2022-09-09T22:12:57;18.02;;;9.75;;
42670;SDS011;28283;55.426;37.756;2022-09-09T22:23:20;16.27;;;7.93;;
42670;SDS011;28283;55.426;37.756;2022-09-09T22:28:21;14.35;;;7.85;;
42670;SDS011;28283;55.426;37.756;2022-09-09T22:33:22;15.90;;;7.95;;
42670;SDS011;28283;55.426;37.756;2022-09-09T22:38:23;20.45;;;10.07;;
42670;SDS011;28283;55.426;37.756;2022-09-09T22:43:24;14.30;;;9.37;;
42670;SDS011;28283;55.426;37.756;2022-09-09T22:48:24;20.13;;;9.57;;
42670;SDS011;28283;55.426;37.756;2022-09-09T22:53:25;21.50;;;8.63;;
42670;SDS011;28283;55.426;37.756;2022-09-09T22:58:27;13.77;;;8.20;;
42670;SDS011;28283;55.426;37.756;2022-09-09T23:03:29;19.17;;;8.63;;
42670;SDS011;28283;55.426;37.756;2022-09-09T23:08:35;17.05;;;8.70;;
42670;SDS011;28283;55.426;37.756;2022-09-09T23:13:37;19.38;;;8.80;;
42670;SDS011;28283;55.426;37.756;2022-09-09T23:18:40;14.50;;;8.10;;
42670;SDS011;28283;55.426;37.756;2022-09-09T23:23:42;21.58;;;8.05;;
42670;SDS011;28283;55.426;37.756;2022-09-09T23:28:44;14.57;;;7.57;;
42670;SDS011;28283;55.426;37.756;2022-09-09T23:33:48;14.27;;;7.38;;
42670;SDS011;28283;55.426;37.756;2022-09-09T23:38:50;13.30;;;7.35;;
42670;SDS011;28283;55.426;37.756;2022-09-09T23:43:51;14.65;;;9.10;;
42670;SDS011;28283;55.426;37.756;2022-09-09T23:48:53;18.45;;;9.27;;
42670;SDS011;28283;55.426;37.756;2022-09-09T23:53:58;19.58;;;10.45;;
42670;SDS011;28283;55.426;37.756;2022-09-09T23:59:04;22.02;;;10.15;;
